Aviation Digital Data Service (ADDS)

Output produced by METARs form (2134 UTC 16 February 2019)
found at http://www.aviationweather.gov/metar/data/
 
Forecast for: RPMR (GEN SANTOS , PH)
Text: TAF RPMR 161700Z 1618/1718 04006KT 9999 FEW015 SCT080
Forecast period: 1800 UTC 16 February 2019 to 1800 UTC 17 February 2019
Forecast type: FROM: standard forecast or significant change
Winds: from the NE (40 degrees) at 7 MPH (6 knots; 3.1 m/s)
Visibility: 6 or more miles 10+ km)
Ceiling: at least 12,000 feet AGL
Clouds: few clouds at 1500 feet AGL
scattered clouds at 8000 feet AGL
Weather: no significant weather forecast for this period
Text: TEMPO 1618/1624 34003KT FEW015 BKN080
Forecast period: 1800 UTC 16 February 2019 to 0000 UTC 17 February 2019
Forecast type: TEMPORARY: The following changes expected for less than half the time period
Winds: from the NNW (340 degrees) at 3 MPH (3 knots; 1.5 m/s)
Visibility: missing
Ceiling: 8000 feet AGL
Clouds: few clouds at 1500 feet AGL
broken clouds at 8000 feet AGL
Weather: no significant weather forecast for this period